sensor_id;sensor_type;location;lat;lon;timestamp;pressure;altitude;pressure_sealevel;temperature;humidity
77062;BME280;65989;51.686;5.138;2023-04-25T00:01:20;101248.00;;;4.48;87.67
77062;BME280;65989;51.686;5.138;2023-04-25T00:03:47;101242.75;;;4.48;87.89
77062;BME280;65989;51.686;5.138;2023-04-25T00:06:12;101242.34;;;4.44;87.90
77062;BME280;65989;51.686;5.138;2023-04-25T00:08:38;101250.41;;;4.43;87.90
77062;BME280;65989;51.686;5.138;2023-04-25T00:11:04;101244.78;;;4.39;88.04
77062;BME280;65989;51.686;5.138;2023-04-25T00:13:29;101258.47;;;4.34;88.08
77062;BME280;65989;51.686;5.138;2023-04-25T00:15:55;101251.00;;;4.31;88.27
77062;BME280;65989;51.686;5.138;2023-04-25T00:18:21;101248.00;;;4.28;88.11
77062;BME280;65989;51.686;5.138;2023-04-25T00:20:47;101249.00;;;4.27;88.46
77062;BME280;65989;51.686;5.138;2023-04-25T00:23:16;101245.75;;;4.25;88.50
77062;BME280;65989;51.686;5.138;2023-04-25T00:25:47;101254.06;;;4.28;88.49
77062;BME280;65989;51.686;5.138;2023-04-25T00:28:13;101245.59;;;4.26;88.38
77062;BME280;65989;51.686;5.138;2023-04-25T00:30:40;101252.03;;;4.24;88.72
77062;BME280;65989;51.686;5.138;2023-04-25T00:33:06;101248.00;;;4.28;88.76
77062;BME280;65989;51.686;5.138;2023-04-25T00:35:31;101251.84;;;4.25;88.93
77062;BME280;65989;51.686;5.138;2023-04-25T00:37:57;101257.09;;;4.25;88.67
77062;BME280;65989;51.686;5.138;2023-04-25T00:40:22;101254.63;;;4.24;88.94
77062;BME280;65989;51.686;5.138;2023-04-25T00:42:49;101260.50;;;4.26;88.78
77062;BME280;65989;51.686;5.138;2023-04-25T00:45:14;101259.31;;;4.28;89.00
77062;BME280;65989;51.686;5.138;2023-04-25T00:47:41;101265.56;;;4.34;88.84
77062;BME280;65989;51.686;5.138;2023-04-25T00:50:07;101257.91;;;4.39;88.84
77062;BME280;65989;51.686;5.138;2023-04-25T00:52:33;101260.13;;;4.42;88.99
77062;BME280;65989;51.686;5.138;2023-04-25T00:54:59;101261.53;;;4.45;89.22
77062;BME280;65989;51.686;5.138;2023-04-25T00:57:24;101262.75;;;4.42;89.17
77062;BME280;65989;51.686;5.138;2023-04-25T00:59:51;101262.94;;;4.41;89.07
77062;BME280;65989;51.686;5.138;2023-04-25T01:02:17;101267.78;;;4.37;89.11
77062;BME280;65989;51.686;5.138;2023-04-25T01:04:44;101266.56;;;4.33;89.05
77062;BME280;65989;51.686;5.138;2023-04-25T01:07:09;101266.16;;;4.29;89.08
77062;BME280;65989;51.686;5.138;2023-04-25T01:09:35;101265.97;;;4.31;89.04
77062;BME280;65989;51.686;5.138;2023-04-25T01:12:01;101269.81;;;4.35;89.26
77062;BME280;65989;51.686;5.138;2023-04-25T01:14:28;101269.78;;;4.42;89.29
77062;BME280;65989;51.686;5.138;2023-04-25T01:16:54;101264.75;;;4.47;89.36
77062;BME280;65989;51.686;5.138;2023-04-25T01:19:19;101271.84;;;4.46;89.51
77062;BME280;65989;51.686;5.138;2023-04-25T01:21:45;101276.25;;;4.46;89.32
77062;BME280;65989;51.686;5.138;2023-04-25T01:24:11;101275.25;;;4.47;89.46
77062;BME280;65989;51.686;5.138;2023-04-25T01:26:37;101269.59;;;4.43;89.31
77062;BME280;65989;51.686;5.138;2023-04-25T01:29:07;101279.72;;;4.46;89.42
77062;BME280;65989;51.686;5.138;2023-04-25T01:31:34;101277.88;;;4.40;89.09
77062;BME280;65989;51.686;5.138;2023-04-25T01:34:00;101275.44;;;4.39;89.12
77062;BME280;65989;51.686;5.138;2023-04-25T01:36:26;101275.03;;;4.35;89.21
77062;BME280;65989;51.686;5.138;2023-04-25T01:38:52;101282.91;;;4.28;89.25
77062;BME280;65989;51.686;5.138;2023-04-25T01:41:18;101270.38;;;4.24;89.21
77062;BME280;65989;51.686;5.138;2023-04-25T01:43:44;101271.59;;;4.21;89.07
77062;BME280;65989;51.686;5.138;2023-04-25T01:46:11;101279.25;;;4.16;89.10
77062;BME280;65989;51.686;5.138;2023-04-25T01:48:37;101280.25;;;4.08;89.37
77062;BME280;65989;51.686;5.138;2023-04-25T01:51:03;101284.06;;;4.06;89.49
77062;BME280;65989;51.686;5.138;2023-04-25T01:53:28;101289.69;;;4.02;89.25
77062;BME280;65989;51.686;5.138;2023-04-25T01:55:54;101287.06;;;3.96;89.20
77062;BME280;65989;51.686;5.138;2023-04-25T01:58:19;101289.91;;;3.94;89.42
77062;BME280;65989;51.686;5.138;2023-04-25T02:00:46;101293.31;;;3.88;89.18
77062;BME280;65989;51.686;5.138;2023-04-25T02:03:11;101292.69;;;3.86;89.18
77062;BME280;65989;51.686;5.138;2023-04-25T02:05:37;101297.50;;;3.82;89.49
77062;BME280;65989;51.686;5.138;2023-04-25T02:08:05;101296.69;;;3.75;89.19
77062;BME280;65989;51.686;5.138;2023-04-25T02:10:31;101295.06;;;3.74;89.41
77062;BME280;65989;51.686;5.138;2023-04-25T02:12:57;101310.38;;;3.70;89.40
77062;BME280;65989;51.686;5.138;2023-04-25T02:15:23;101312.38;;;3.68;89.27
77062;BME280;65989;51.686;5.138;2023-04-25T02:17:48;101307.53;;;3.65;89.60
77062;BME280;65989;51.686;5.138;2023-04-25T02:20:14;101307.94;;;3.62;89.39
77062;BME280;65989;51.686;5.138;2023-04-25T02:22:41;101306.09;;;3.56;89.51
77062;BME280;65989;51.686;5.138;2023-04-25T02:25:07;101311.31;;;3.56;89.53
77062;BME280;65989;51.686;5.138;2023-04-25T02:27:34;101309.09;;;3.53;89.38
77062;BME280;65989;51.686;5.138;2023-04-25T02:29:59;101309.28;;;3.51;89.51
77062;BME280;65989;51.686;5.138;2023-04-25T02:32:25;101303.00;;;3.46;89.46
77062;BME280;65989;51.686;5.138;2023-04-25T02:34:50;101297.59;;;3.47;89.67
77062;BME280;65989;51.686;5.138;2023-04-25T02:37:16;101305.25;;;3.55;89.65
77062;BME280;65989;51.686;5.138;2023-04-25T02:39:41;101308.72;;;3.63;89.58
77062;BME280;65989;51.686;5.138;2023-04-25T02:42:07;101310.97;;;3.72;89.60
77062;BME280;65989;51.686;5.138;2023-04-25T02:44:32;101305.38;;;3.82;89.62
77062;BME280;65989;51.686;5.138;2023-04-25T02:46:57;101304.41;;;3.90;89.75
77062;BME280;65989;51.686;5.138;2023-04-25T02:49:23;101308.06;;;3.96;89.55
77062;BME280;65989;51.686;5.138;2023-04-25T02:51:48;101312.69;;;4.00;89.78
77062;BME280;65989;51.686;5.138;2023-04-25T02:54:13;101316.75;;;4.10;89.69
77062;BME280;65989;51.686;5.138;2023-04-25T02:56:39;101309.13;;;4.15;89.63
77062;BME280;65989;51.686;5.138;2023-04-25T02:59:04;101307.50;;;4.21;89.56
77062;BME280;65989;51.686;5.138;2023-04-25T03:01:30;101307.53;;;4.27;89.49
77062;BME280;65989;51.686;5.138;2023-04-25T03:03:55;101302.28;;;4.34;89.43
77062;BME280;65989;51.686;5.138;2023-04-25T03:06:20;101301.28;;;4.35;89.44
77062;BME280;65989;51.686;5.138;2023-04-25T03:08:46;101300.88;;;4.38;89.52
77062;BME280;65989;51.686;5.138;2023-04-25T03:11:11;101305.53;;;4.43;89.56
77062;BME280;65989;51.686;5.138;2023-04-25T03:13:37;101308.97;;;4.43;89.13
77062;BME280;65989;51.686;5.138;2023-04-25T03:16:02;101309.97;;;4.42;89.49
77062;BME280;65989;51.686;5.138;2023-04-25T03:18:28;101302.28;;;4.41;89.28
77062;BME280;65989;51.686;5.138;2023-04-25T03:20:53;101301.28;;;4.42;89.48
77062;BME280;65989;51.686;5.138;2023-04-25T03:23:18;101309.75;;;4.37;89.44
77062;BME280;65989;51.686;5.138;2023-04-25T03:25:44;101313.19;;;4.38;89.14
77062;BME280;65989;51.686;5.138;2023-04-25T03:28:09;101317.81;;;4.36;89.26
77062;BME280;65989;51.686;5.138;2023-04-25T03:30:34;101319.03;;;4.33;89.24
77062;BME280;65989;51.686;5.138;2023-04-25T03:33:00;101312.56;;;4.29;89.18
77062;BME280;65989;51.686;5.138;2023-04-25T03:35:25;101314.19;;;4.30;89.04
77062;BME280;65989;51.686;5.138;2023-04-25T03:37:51;101310.78;;;4.29;89.40
77062;BME280;65989;51.686;5.138;2023-04-25T03:40:16;101315.81;;;4.31;89.39
77062;BME280;65989;51.686;5.138;2023-04-25T03:42:42;101318.63;;;4.29;89.19
77062;BME280;65989;51.686;5.138;2023-04-25T03:45:07;101312.16;;;4.25;89.24
77062;BME280;65989;51.686;5.138;2023-04-25T03:47:33;101308.50;;;4.19;89.01
77062;BME280;65989;51.686;5.138;2023-04-25T03:49:58;101311.94;;;4.13;89.19
77062;BME280;65989;51.686;5.138;2023-04-25T03:52:25;101321.00;;;4.04;89.19
77062;BME280;65989;51.686;5.138;2023-04-25T03:54:51;101321.97;;;3.96;89.30
77062;BME280;65989;51.686;5.138;2023-04-25T03:57:16;101323.94;;;3.87;89.05
77062;BME280;65989;51.686;5.138;2023-04-25T03:59:41;101329.41;;;3.86;89.33
77062;BME280;65989;51.686;5.138;2023-04-25T04:02:07;101331.03;;;3.87;89.36
77062;BME280;65989;51.686;5.138;2023-04-25T04:04:32;101331.63;;;3.89;89.37
77062;BME280;65989;51.686;5.138;2023-04-25T04:06:58;101338.09;;;3.93;89.26
77062;BME280;65989;51.686;5.138;2023-04-25T04:09:23;101328.84;;;3.97;89.33
77062;BME280;65989;51.686;5.138;2023-04-25T04:11:48;101336.72;;;4.04;89.41
77062;BME280;65989;51.686;5.138;2023-04-25T04:14:14;101339.56;;;4.09;89.31
77062;BME280;65989;51.686;5.138;2023-04-25T04:16:39;101341.59;;;4.14;89.24
77062;BME280;65989;51.686;5.138;2023-04-25T04:19:05;101338.75;;;4.15;89.34
77062;BME280;65989;51.686;5.138;2023-04-25T04:21:30;101334.75;;;4.19;89.50
77062;BME280;65989;51.686;5.138;2023-04-25T04:23:57;101340.81;;;4.27;89.48
77062;BME280;65989;51.686;5.138;2023-04-25T04:26:23;101346.50;;;4.30;89.28
77062;BME280;65989;51.686;5.138;2023-04-25T04:28:51;101347.91;;;4.33;89.42
77062;BME280;65989;51.686;5.138;2023-04-25T04:31:21;101340.84;;;4.40;89.38
77062;BME280;65989;51.686;5.138;2023-04-25T04:33:47;101352.38;;;4.46;89.36
77062;BME280;65989;51.686;5.138;2023-04-25T04:36:13;101358.22;;;4.48;89.60
77062;BME280;65989;51.686;5.138;2023-04-25T04:38:39;101361.84;;;4.54;89.45
77062;BME280;65989;51.686;5.138;2023-04-25T04:41:05;101350.78;;;4.58;89.38
77062;BME280;65989;51.686;5.138;2023-04-25T04:43:31;101355.41;;;4.63;89.22
77062;BME280;65989;51.686;5.138;2023-04-25T04:46:00;101360.88;;;4.68;89.38
77062;BME280;65989;51.686;5.138;2023-04-25T04:48:25;101363.91;;;4.72;89.28
77062;BME280;65989;51.686;5.138;2023-04-25T04:50:51;101358.25;;;4.75;89.28
77062;BME280;65989;51.686;5.138;2023-04-25T04:53:17;101363.09;;;4.78;89.15
77062;BME280;65989;51.686;5.138;2023-04-25T04:55:42;101364.94;;;4.84;89.27
77062;BME280;65989;51.686;5.138;2023-04-25T04:58:08;101370.59;;;4.95;89.06
77062;BME280;65989;51.686;5.138;2023-04-25T05:00:34;101375.63;;;5.03;89.32
77062;BME280;65989;51.686;5.138;2023-04-25T05:02:59;101370.56;;;5.15;88.84
77062;BME280;65989;51.686;5.138;2023-04-25T05:05:25;101380.28;;;5.28;88.77
77062;BME280;65989;51.686;5.138;2023-04-25T05:07:51;101383.88;;;5.47;88.74
77062;BME280;65989;51.686;5.138;2023-04-25T05:10:17;101387.06;;;5.69;88.44
77062;BME280;65989;51.686;5.138;2023-04-25T05:12:43;101394.94;;;5.76;87.83
77062;BME280;65989;51.686;5.138;2023-04-25T05:15:09;101397.72;;;5.81;87.88
77062;BME280;65989;51.686;5.138;2023-04-25T05:17:34;101401.72;;;5.97;87.55
77062;BME280;65989;51.686;5.138;2023-04-25T05:20:00;101409.41;;;6.12;87.12
77062;BME280;65989;51.686;5.138;2023-04-25T05:22:25;101407.41;;;6.07;86.77
77062;BME280;65989;51.686;5.138;2023-04-25T05:24:51;101408.81;;;6.03;85.84
77062;BME280;65989;51.686;5.138;2023-04-25T05:27:17;101414.69;;;6.05;85.56
77062;BME280;65989;51.686;5.138;2023-04-25T05:29:43;101424.19;;;6.06;85.44
77062;BME280;65989;51.686;5.138;2023-04-25T05:32:08;101431.69;;;6.09;85.14
77062;BME280;65989;51.686;5.138;2023-04-25T05:34:34;101430.88;;;6.09;84.64
77062;BME280;65989;51.686;5.138;2023-04-25T05:36:59;101430.81;;;6.22;84.35
77062;BME280;65989;51.686;5.138;2023-04-25T05:39:25;101429.59;;;6.25;83.99
77062;BME280;65989;51.686;5.138;2023-04-25T05:41:51;101437.25;;;6.33;83.46
77062;BME280;65989;51.686;5.138;2023-04-25T05:44:16;101427.69;;;6.46;82.79
77062;BME280;65989;51.686;5.138;2023-04-25T05:46:42;101436.16;;;7.37;81.97
77062;BME280;65989;51.686;5.138;2023-04-25T05:49:08;101439.69;;;8.73;80.59
77062;BME280;65989;51.686;5.138;2023-04-25T05:51:33;101447.94;;;9.79;77.82
77062;BME280;65989;51.686;5.138;2023-04-25T05:53:59;101437.97;;;10.10;75.21
77062;BME280;65989;51.686;5.138;2023-04-25T05:56:24;101437.78;;;10.28;72.74
77062;BME280;65989;51.686;5.138;2023-04-25T05:58:49;101438.94;;;10.61;70.99
77062;BME280;65989;51.686;5.138;2023-04-25T06:01:15;101436.81;;;10.75;69.00
77062;BME280;65989;51.686;5.138;2023-04-25T06:03:41;101435.34;;;10.68;66.76
77062;BME280;65989;51.686;5.138;2023-04-25T06:06:08;101437.53;;;10.88;66.17
77062;BME280;65989;51.686;5.138;2023-04-25T06:08:34;101439.97;;;11.46;65.22
77062;BME280;65989;51.686;5.138;2023-04-25T06:11:00;101437.16;;;11.92;63.07
77062;BME280;65989;51.686;5.138;2023-04-25T06:13:25;101439.22;;;12.07;61.88
77062;BME280;65989;51.686;5.138;2023-04-25T06:15:50;101447.75;;;12.91;59.90
77062;BME280;65989;51.686;5.138;2023-04-25T06:18:16;101437.34;;;13.70;57.89
77062;BME280;65989;51.686;5.138;2023-04-25T06:20:41;101442.63;;;14.24;56.39
77062;BME280;65989;51.686;5.138;2023-04-25T06:23:07;101443.97;;;13.63;55.60
77062;BME280;65989;51.686;5.138;2023-04-25T06:25:32;101440.13;;;13.05;57.39
77062;BME280;65989;51.686;5.138;2023-04-25T06:27:58;101434.63;;;12.52;58.36
77062;BME280;65989;51.686;5.138;2023-04-25T06:30:23;101443.84;;;12.17;59.16
77062;BME280;65989;51.686;5.138;2023-04-25T06:32:53;101456.22;;;11.89;59.77
77062;BME280;65989;51.686;5.138;2023-04-25T06:35:19;101457.69;;;11.79;60.21
77062;BME280;65989;51.686;5.138;2023-04-25T06:37:45;101470.59;;;11.71;59.81
77062;BME280;65989;51.686;5.138;2023-04-25T06:40:10;101468.13;;;11.30;60.54
77062;BME280;65989;51.686;5.138;2023-04-25T06:42:39;101460.19;;;11.13;61.17
77062;BME280;65989;51.686;5.138;2023-04-25T06:45:05;101472.41;;;11.31;61.14
77062;BME280;65989;51.686;5.138;2023-04-25T06:47:30;101480.44;;;11.36;60.75
77062;BME280;65989;51.686;5.138;2023-04-25T06:49:56;101474.84;;;11.15;59.34
77062;BME280;65989;51.686;5.138;2023-04-25T06:52:21;101476.56;;;11.10;59.73
77062;BME280;65989;51.686;5.138;2023-04-25T06:54:47;101481.41;;;11.13;58.95
77062;BME280;65989;51.686;5.138;2023-04-25T06:57:12;101477.72;;;11.31;59.04
77062;BME280;65989;51.686;5.138;2023-04-25T06:59:38;101487.69;;;11.41;58.87
77062;BME280;65989;51.686;5.138;2023-04-25T07:02:03;101491.13;;;11.41;58.69
77062;BME280;65989;51.686;5.138;2023-04-25T07:04:29;101506.31;;;11.29;58.73
77062;BME280;65989;51.686;5.138;2023-04-25T07:06:55;101514.47;;;11.39;59.34
77062;BME280;65989;51.686;5.138;2023-04-25T07:09:21;101505.44;;;11.40;57.68
77062;BME280;65989;51.686;5.138;2023-04-25T07:11:46;101510.19;;;11.55;56.81
77062;BME280;65989;51.686;5.138;2023-04-25T07:14:12;101510.34;;;11.65;57.21
77062;BME280;65989;51.686;5.138;2023-04-25T07:16:37;101512.84;;;11.94;57.96
77062;BME280;65989;51.686;5.138;2023-04-25T07:19:03;101511.72;;;12.07;57.54
77062;BME280;65989;51.686;5.138;2023-04-25T07:21:28;101517.44;;;11.99;57.05
77062;BME280;65989;51.686;5.138;2023-04-25T07:23:53;101514.78;;;11.99;57.13
77062;BME280;65989;51.686;5.138;2023-04-25T07:26:19;101522.53;;;11.84;56.64
77062;BME280;65989;51.686;5.138;2023-04-25T07:28:44;101524.38;;;11.83;57.33
77062;BME280;65989;51.686;5.138;2023-04-25T07:31:10;101530.47;;;11.61;56.52
77062;BME280;65989;51.686;5.138;2023-04-25T07:33:36;101535.59;;;11.51;56.86
77062;BME280;65989;51.686;5.138;2023-04-25T07:36:01;101532.84;;;11.29;56.43
77062;BME280;65989;51.686;5.138;2023-04-25T07:38:27;101541.53;;;11.07;56.42
77062;BME280;65989;51.686;5.138;2023-04-25T07:40:52;101540.94;;;10.88;57.94
77062;BME280;65989;51.686;5.138;2023-04-25T07:43:18;101539.63;;;10.61;59.00
77062;BME280;65989;51.686;5.138;2023-04-25T07:45:44;101548.22;;;10.40;60.08
77062;BME280;65989;51.686;5.138;2023-04-25T07:48:09;101542.41;;;10.02;60.09
77062;BME280;65989;51.686;5.138;2023-04-25T07:50:35;101546.66;;;9.79;61.46
77062;BME280;65989;51.686;5.138;2023-04-25T07:53:01;101560.72;;;9.80;61.56
77062;BME280;65989;51.686;5.138;2023-04-25T07:55:27;101554.84;;;9.66;62.06
77062;BME280;65989;51.686;5.138;2023-04-25T07:57:53;101568.53;;;9.63;62.19
77062;BME280;65989;51.686;5.138;2023-04-25T08:00:18;101568.41;;;9.69;62.88
77062;BME280;65989;51.686;5.138;2023-04-25T08:02:44;101564.72;;;9.82;63.07
77062;BME280;65989;51.686;5.138;2023-04-25T08:05:10;101569.69;;;9.91;62.33
77062;BME280;65989;51.686;5.138;2023-04-25T08:07:39;101560.94;;;10.02;61.95
77062;BME280;65989;51.686;5.138;2023-04-25T08:10:06;101567.47;;;10.23;61.74
77062;BME280;65989;51.686;5.138;2023-04-25T08:12:32;101569.06;;;10.48;61.54
77062;BME280;65989;51.686;5.138;2023-04-25T08:14:57;101574.19;;;10.67;60.90
77062;BME280;65989;51.686;5.138;2023-04-25T08:17:23;101582.09;;;10.79;60.21
77062;BME280;65989;51.686;5.138;2023-04-25T08:19:48;101577.22;;;10.99;59.28
77062;BME280;65989;51.686;5.138;2023-04-25T08:22:14;101580.88;;;11.27;59.91
77062;BME280;65989;51.686;5.138;2023-04-25T08:24:40;101578.97;;;11.40;58.56
77062;BME280;65989;51.686;5.138;2023-04-25T08:27:05;101583.63;;;11.49;58.29
77062;BME280;65989;51.686;5.138;2023-04-25T08:29:31;101584.50;;;11.72;57.68
77062;BME280;65989;51.686;5.138;2023-04-25T08:31:57;101585.16;;;11.79;56.70
77062;BME280;65989;51.686;5.138;2023-04-25T08:34:22;101590.53;;;11.85;56.52
77062;BME280;65989;51.686;5.138;2023-04-25T08:36:47;101591.50;;;11.95;56.42
77062;BME280;65989;51.686;5.138;2023-04-25T08:39:13;101597.03;;;11.94;56.17
77062;BME280;65989;51.686;5.138;2023-04-25T08:41:39;101596.91;;;12.01;55.71
77062;BME280;65989;51.686;5.138;2023-04-25T08:44:09;101612.06;;;12.22;56.04
77062;BME280;65989;51.686;5.138;2023-04-25T08:46:38;101609.47;;;12.67;56.01
77062;BME280;65989;51.686;5.138;2023-04-25T08:49:03;101608.22;;;12.75;53.95
77062;BME280;65989;51.686;5.138;2023-04-25T08:51:32;101616.44;;;12.51;53.03
77062;BME280;65989;51.686;5.138;2023-04-25T08:54:10;101622.97;;;12.43;53.47
77062;BME280;65989;51.686;5.138;2023-04-25T08:56:41;101613.97;;;12.66;53.89
77062;BME280;65989;51.686;5.138;2023-04-25T08:59:09;101619.91;;;12.74;54.38
77062;BME280;65989;51.686;5.138;2023-04-25T09:01:34;101625.22;;;12.74;55.09
77062;BME280;65989;51.686;5.138;2023-04-25T09:04:04;101621.50;;;12.75;53.66
77062;BME280;65989;51.686;5.138;2023-04-25T09:06:30;101626.53;;;12.71;52.52
77062;BME280;65989;51.686;5.138;2023-04-25T09:09:02;101634.81;;;12.75;52.41
77062;BME280;65989;51.686;5.138;2023-04-25T09:11:29;101645.25;;;12.81;52.13
77062;BME280;65989;51.686;5.138;2023-04-25T09:14:14;101651.19;;;12.89;52.28
77062;BME280;65989;51.686;5.138;2023-04-25T09:19:22;101662.25;;;12.19;51.86
77062;BME280;65989;51.686;5.138;2023-04-25T09:21:53;101660.06;;;11.82;52.28
77062;BME280;65989;51.686;5.138;2023-04-25T09:24:39;101663.44;;;11.31;54.40
77062;BME280;65989;51.686;5.138;2023-04-25T09:27:07;101671.53;;;11.24;56.04
77062;BME280;65989;51.686;5.138;2023-04-25T09:29:37;101673.69;;;11.39;56.34
77062;BME280;65989;51.686;5.138;2023-04-25T09:32:21;101668.00;;;11.64;56.89
77062;BME280;65989;51.686;5.138;2023-04-25T09:34:52;101669.31;;;11.96;56.83
77062;BME280;65989;51.686;5.138;2023-04-25T09:37:25;101668.84;;;12.16;53.87
77062;BME280;65989;51.686;5.138;2023-04-25T09:39:56;101672.91;;;12.58;53.05
77062;BME280;65989;51.686;5.138;2023-04-25T09:42:26;101669.03;;;12.93;53.63
77062;BME280;65989;51.686;5.138;2023-04-25T09:44:53;101666.91;;;12.90;51.57
77062;BME280;65989;51.686;5.138;2023-04-25T09:47:19;101667.13;;;12.66;51.43
77062;BME280;65989;51.686;5.138;2023-04-25T09:49:47;101672.91;;;12.58;51.35
77062;BME280;65989;51.686;5.138;2023-04-25T09:52:18;101666.00;;;12.62;51.38
77062;BME280;65989;51.686;5.138;2023-04-25T09:54:47;101676.28;;;12.53;49.81
77062;BME280;65989;51.686;5.138;2023-04-25T09:57:15;101666.22;;;12.55;51.16
77062;BME280;65989;51.686;5.138;2023-04-25T09:59:52;101671.47;;;12.73;51.13
77062;BME280;65989;51.686;5.138;2023-04-25T10:02:20;101675.31;;;12.82;51.25
77062;BME280;65989;51.686;5.138;2023-04-25T10:04:49;101671.28;;;12.79;50.77
77062;BME280;65989;51.686;5.138;2023-04-25T10:07:18;101673.28;;;12.67;50.95
77062;BME280;65989;51.686;5.138;2023-04-25T10:09:44;101677.53;;;12.68;51.73
77062;BME280;65989;51.686;5.138;2023-04-25T10:12:12;101677.22;;;12.64;52.63
77062;BME280;65989;51.686;5.138;2023-04-25T10:14:38;101683.88;;;12.45;52.28
77062;BME280;65989;51.686;5.138;2023-04-25T10:17:03;101686.97;;;12.59;53.41
77062;BME280;65989;51.686;5.138;2023-04-25T10:19:29;101687.56;;;12.83;52.66
77062;BME280;65989;51.686;5.138;2023-04-25T10:22:34;101690.81;;;13.12;52.17
77062;BME280;65989;51.686;5.138;2023-04-25T10:25:01;101686.97;;;13.25;50.36
77062;BME280;65989;51.686;5.138;2023-04-25T10:27:29;101684.34;;;13.53;48.67
77062;BME280;65989;51.686;5.138;2023-04-25T10:30:07;101707.59;;;13.35;49.00
77062;BME280;65989;51.686;5.138;2023-04-25T10:32:36;101702.44;;;12.62;49.13
77062;BME280;65989;51.686;5.138;2023-04-25T10:35:19;101728.03;;;12.12;48.58
77062;BME280;65989;51.686;5.138;2023-04-25T10:40:29;101728.72;;;11.32;50.67
77062;BME280;65989;51.686;5.138;2023-04-25T10:42:55;101728.25;;;11.35;49.99
77062;BME280;65989;51.686;5.138;2023-04-25T10:45:21;101720.13;;;11.13;50.72
77062;BME280;65989;51.686;5.138;2023-04-25T10:47:47;101722.91;;;11.06;51.14
77062;BME280;65989;51.686;5.138;2023-04-25T10:50:16;101727.66;;;11.04;52.01
77062;BME280;65989;51.686;5.138;2023-04-25T10:52:42;101744.97;;;11.07;53.21
77062;BME280;65989;51.686;5.138;2023-04-25T10:55:09;101733.13;;;10.85;54.36
77062;BME280;65989;51.686;5.138;2023-04-25T10:57:41;101732.09;;;10.74;54.84
77062;BME280;65989;51.686;5.138;2023-04-25T11:05:17;101719.41;;;10.88;55.98
77062;BME280;65989;51.686;5.138;2023-04-25T11:07:52;101724.00;;;10.93;53.75
77062;BME280;65989;51.686;5.138;2023-04-25T11:10:19;101727.47;;;10.82;52.22
77062;BME280;65989;51.686;5.138;2023-04-25T11:12:46;101736.25;;;10.70;52.67
77062;BME280;65989;51.686;5.138;2023-04-25T11:15:12;101735.66;;;10.68;51.74
77062;BME280;65989;51.686;5.138;2023-04-25T11:17:38;101737.16;;;10.76;50.16
77062;BME280;65989;51.686;5.138;2023-04-25T11:20:06;101736.66;;;11.03;49.91
77062;BME280;65989;51.686;5.138;2023-04-25T11:22:34;101727.94;;;11.31;49.15
77062;BME280;65989;51.686;5.138;2023-04-25T11:25:05;101727.69;;;11.62;48.48
77062;BME280;65989;51.686;5.138;2023-04-25T11:27:31;101731.66;;;11.76;49.17
77062;BME280;65989;51.686;5.138;2023-04-25T11:29:56;101725.63;;;11.81;47.84
77062;BME280;65989;51.686;5.138;2023-04-25T11:32:22;101728.69;;;11.73;46.29
77062;BME280;65989;51.686;5.138;2023-04-25T11:34:47;101736.22;;;11.64;47.16
77062;BME280;65989;51.686;5.138;2023-04-25T11:37:13;101736.78;;;11.66;47.41
77062;BME280;65989;51.686;5.138;2023-04-25T11:39:43;101739.72;;;11.82;47.75
77062;BME280;65989;51.686;5.138;2023-04-25T11:42:09;101731.94;;;11.92;46.79
77062;BME280;65989;51.686;5.138;2023-04-25T11:44:35;101730.41;;;11.96;47.98
77062;BME280;65989;51.686;5.138;2023-04-25T11:47:01;101732.69;;;12.04;46.55
77062;BME280;65989;51.686;5.138;2023-04-25T11:49:30;101729.47;;;12.19;45.75
77062;BME280;65989;51.686;5.138;2023-04-25T11:51:56;101732.28;;;12.30;45.68
77062;BME280;65989;51.686;5.138;2023-04-25T11:54:22;101741.00;;;12.08;44.46
77062;BME280;65989;51.686;5.138;2023-04-25T11:56:48;101748.06;;;11.73;45.32
77062;BME280;65989;51.686;5.138;2023-04-25T11:59:14;101757.22;;;11.65;46.44
77062;BME280;65989;51.686;5.138;2023-04-25T12:01:48;101749.47;;;11.93;46.61
77062;BME280;65989;51.686;5.138;2023-04-25T12:04:14;101747.19;;;12.14;44.85
77062;BME280;65989;51.686;5.138;2023-04-25T12:06:41;101754.59;;;12.46;45.95
77062;BME280;65989;51.686;5.138;2023-04-25T12:09:08;101758.66;;;12.70;46.30
77062;BME280;65989;51.686;5.138;2023-04-25T12:11:42;101755.25;;;12.75;44.62
77062;BME280;65989;51.686;5.138;2023-04-25T12:14:09;101763.81;;;12.60;45.13
77062;BME280;65989;51.686;5.138;2023-04-25T12:16:43;101764.34;;;12.40;46.27
77062;BME280;65989;51.686;5.138;2023-04-25T12:19:08;101768.84;;;12.22;46.17
77062;BME280;65989;51.686;5.138;2023-04-25T12:21:34;101766.44;;;12.04;48.07
77062;BME280;65989;51.686;5.138;2023-04-25T12:24:13;101804.69;;;11.91;49.62
77062;BME280;65989;51.686;5.138;2023-04-25T12:26:55;101796.06;;;11.55;50.91
77062;BME280;65989;51.686;5.138;2023-04-25T12:29:25;101804.84;;;11.43;51.56
77062;BME280;65989;51.686;5.138;2023-04-25T12:31:52;101800.50;;;11.66;50.95
77062;BME280;65989;51.686;5.138;2023-04-25T12:34:18;101805.28;;;11.81;51.21
77062;BME280;65989;51.686;5.138;2023-04-25T12:36:44;101795.66;;;11.63;51.12
77062;BME280;65989;51.686;5.138;2023-04-25T12:39:21;101801.16;;;11.44;53.37
77062;BME280;65989;51.686;5.138;2023-04-25T12:41:52;101802.44;;;11.42;53.18
77062;BME280;65989;51.686;5.138;2023-04-25T12:44:19;101799.31;;;11.33;53.43
77062;BME280;65989;51.686;5.138;2023-04-25T12:46:44;101799.22;;;11.28;53.26
77062;BME280;65989;51.686;5.138;2023-04-25T12:49:10;101794.38;;;11.37;52.88
77062;BME280;65989;51.686;5.138;2023-04-25T12:51:36;101798.41;;;11.39;52.01
77062;BME280;65989;51.686;5.138;2023-04-25T12:54:03;101796.88;;;11.43;52.09
77062;BME280;65989;51.686;5.138;2023-04-25T12:56:30;101794.56;;;11.59;53.04
77062;BME280;65989;51.686;5.138;2023-04-25T12:58:56;101787.16;;;11.90;54.43
77062;BME280;65989;51.686;5.138;2023-04-25T13:01:22;101784.31;;;12.08;53.38
77062;BME280;65989;51.686;5.138;2023-04-25T13:03:48;101776.44;;;12.31;53.96